METAR Data
IDs: Format: Raw Decoded Include TAF

Data at: 1302 UTC 26 Feb 2021

ESKN 261250Z 31015KT CAVOK 10/02 Q1012 R26/09//95